page 5514 of 1009722 registered users

eBook PostsUsers

  1. 0shark1camp registered @ 2013-01-19 14:58:47, last login @ 2013-01-19 14:58:47
  2. 0mirrorswamp06 registered @ 2013-01-19 15:00:00, last login @ 2013-01-19 15:00:00
  3. 0trip38pear registered @ 2013-01-19 15:00:33, last login @ 2013-01-19 15:00:33
  4. 0doubthockey0 registered @ 2013-01-19 15:01:13, last login @ 2013-01-19 15:24:03
  5. 0citybotany6 registered @ 2013-01-19 15:01:28, last login @ 2013-01-19 15:01:28
  6. 0Rozh registered @ 2013-01-19 15:01:32, last login @ 2013-01-19 15:02:24
  7. 0warlan02 registered @ 2013-01-19 15:02:16, last login @ 2013-01-19 15:02:16
  8. 0secure94santa registered @ 2013-01-19 15:02:26, last login @ 2013-01-19 15:02:26
  9. 0yard62brick registered @ 2013-01-19 15:02:27, last login @ 2013-01-19 15:02:27
  10. 0beret09virgo registered @ 2013-01-19 15:05:23, last login @ 2013-01-19 15:05:23
  11. 0geese5freeze registered @ 2013-01-19 15:05:49, last login @ 2013-01-19 15:05:49
  12. 0KateWeden0217 registered @ 2013-01-19 15:09:06, last login @ 2013-01-19 15:18:46
  13. 0pushpickle2 registered @ 2013-01-19 15:11:34, last login @ 2013-01-19 15:11:34
  14. 0rate4edge registered @ 2013-01-19 15:11:46, last login @ 2013-01-19 15:28:16
  15. 0jaimsmithz registered @ 2013-01-19 15:12:10, last login @ 2013-01-19 15:12:10
  16. 0gym14brian registered @ 2013-01-19 15:12:12, last login @ 2013-01-19 15:12:12
  17. 0boltweight29 registered @ 2013-01-19 15:14:40, last login @ 2013-01-19 15:14:40
  18. 0scene91beret registered @ 2013-01-19 15:14:49, last login @ 2013-01-19 15:53:53
  19. 0cowbeer4 registered @ 2013-01-19 15:15:14, last login @ 2013-01-19 15:35:20
  20. 0gardendomain3 registered @ 2013-01-19 15:15:31, last login @ 2013-01-19 15:58:52
  21. 0golfbox7 registered @ 2013-01-19 15:16:11, last login @ 2013-01-19 15:16:11
  22. 0davidclass0 registered @ 2013-01-19 15:17:34, last login @ 2013-01-19 15:17:34
  23. 0brandkaren7 registered @ 2013-01-19 15:19:00, last login @ 2013-01-19 15:19:00
  24. 0dealcod3 registered @ 2013-01-19 15:19:12, last login @ 2013-01-19 15:19:12
  25. 0secondlegal45 registered @ 2013-01-19 15:19:40, last login @ 2013-01-19 15:19:40
  26. 0branch44friday registered @ 2013-01-19 15:19:58, last login @ 2013-01-19 15:19:58
  27. 0expert1crop registered @ 2013-01-19 15:20:04, last login @ 2013-01-19 15:20:04
  28. 0rate5cork registered @ 2013-01-19 15:21:12, last login @ 2013-01-19 15:33:40
  29. 0koreanshake5 registered @ 2013-01-19 15:21:14, last login @ 2013-01-19 15:21:14
  30. 0makeup7bag registered @ 2013-01-19 15:21:34, last login @ 2013-01-19 15:21:34
  31. 0word0birch registered @ 2013-01-19 15:22:05, last login @ 2013-01-19 15:22:05
  32. 0soapant4 registered @ 2013-01-19 15:22:07, last login @ 2013-01-19 15:22:07
  33. 0potato80pink registered @ 2013-01-19 15:23:04, last login @ 2013-01-19 15:23:04
  34. 0massstage3 registered @ 2013-01-19 15:23:22, last login @ 2013-01-19 15:23:22
  35. 0straw8cream registered @ 2013-01-19 15:24:21, last login @ 2013-01-19 15:43:24
  36. 0poppy6crop registered @ 2013-01-19 15:24:55, last login @ 2013-01-19 15:24:55
  37. 0emery61patch registered @ 2013-01-19 15:25:02, last login @ 2013-01-19 15:25:02
  38. 0oxtop4 registered @ 2013-01-19 15:25:17, last login @ 2013-01-19 15:25:17
  39. 0reason73viola registered @ 2013-01-19 15:25:25, last login @ 2013-01-19 15:25:25
  40. 0celery3quart registered @ 2013-01-19 15:25:27, last login @ 2013-01-19 15:25:27
  41. 0basinlentil4 registered @ 2013-01-19 15:27:16, last login @ 2013-01-19 15:27:16
  42. 0smokedrama5 registered @ 2013-01-19 15:27:39, last login @ 2013-01-19 15:27:39
  43. 0coffee7heron registered @ 2013-01-19 15:28:48, last login @ 2013-01-19 15:28:48
  44. 0selectbird68 registered @ 2013-01-19 15:29:00, last login @ 2013-01-19 15:29:00
  45. 0novelfarmer72 registered @ 2013-01-19 15:29:15, last login @ 2013-01-19 15:29:15
  46. 0parade46storm registered @ 2013-01-19 15:31:43, last login @ 2013-01-19 15:31:43
  47. 0hawk1girl registered @ 2013-01-19 15:32:31, last login @ 2013-01-19 15:32:31
  48. 0fathersushi19 registered @ 2013-01-19 15:33:41, last login @ 2013-01-19 15:33:41
  49. 0mouthjaguar4 registered @ 2013-01-19 15:34:37, last login @ 2013-01-19 15:34:37
  50. 0syrup2black registered @ 2013-01-19 15:34:46, last login @ 2013-01-19 15:34:46
  51. 0drugshield74 registered @ 2013-01-19 15:34:47, last login @ 2013-01-19 15:46:39
  52. 0flare2tempo registered @ 2013-01-19 15:35:05, last login @ 2013-01-19 15:53:24
  53. 0emilejudge5 registered @ 2013-01-19 15:35:46, last login @ 2013-01-19 15:35:46
  54. 0wrench1burn registered @ 2013-01-19 15:36:53, last login @ 2013-01-19 15:36:53
  55. 0case37ray registered @ 2013-01-19 15:36:53, last login @ 2013-01-19 15:36:53
  56. 0ecodeFut registered @ 2013-01-19 15:37:46, last login @ 2013-01-19 15:37:46
  57. 0sale3subway registered @ 2013-01-19 15:38:37, last login @ 2013-01-19 15:38:37
  58. 0taurushead25 registered @ 2013-01-19 15:38:53, last login @ 2013-01-19 15:38:53
  59. 0brown2pillow registered @ 2013-01-19 15:40:45, last login @ 2013-01-19 15:40:45
  60. 0tempo7taurus registered @ 2013-01-19 15:40:49, last login @ 2013-01-19 15:40:49
  61. 0ash69swim registered @ 2013-01-19 15:41:22, last login @ 2013-01-19 15:41:22
  62. 0circlegemini8 registered @ 2013-01-19 15:41:26, last login @ 2013-01-19 15:41:26
  63. 0avenue1rise registered @ 2013-01-19 15:42:12, last login @ 2013-01-19 15:42:12
  64. 0chainfat47 registered @ 2013-01-19 15:42:34, last login @ 2013-01-19 15:42:34
  65. 0palmtoilet0 registered @ 2013-01-19 15:43:32, last login @ 2013-01-19 15:43:32
  66. 0bladenurse02 registered @ 2013-01-19 15:43:38, last login @ 2013-01-19 15:43:38
  67. 0whorl7tv registered @ 2013-01-19 15:45:32, last login @ 2013-01-19 15:45:32
  68. 0nicghost13 registered @ 2013-01-19 15:45:46, last login @ 2013-01-19 15:45:46
  69. 0modem2greek registered @ 2013-01-19 15:46:21, last login @ 2013-01-19 15:46:21
  70. 0mondaypoet0 registered @ 2013-01-19 15:47:49, last login @ 2013-01-19 15:47:49
  71. 0game69carol registered @ 2013-01-19 15:48:16, last login @ 2013-01-19 15:48:16
  72. 0mimosa5camel registered @ 2013-01-19 15:48:58, last login @ 2013-01-19 15:48:58
  73. 0petcoil24 registered @ 2013-01-19 15:49:42, last login @ 2013-01-19 15:49:42
  74. 0searchpruner58 registered @ 2013-01-19 15:50:05, last login @ 2013-01-19 15:50:05
  75. 0worm7queen registered @ 2013-01-19 15:51:23, last login @ 2013-01-19 15:51:23
  76. 0llamasinger8 registered @ 2013-01-19 15:52:10, last login @ 2013-01-19 15:52:10
  77. 0edge46fowl registered @ 2013-01-19 15:52:26, last login @ 2013-01-19 15:52:26
  78. 0bullcup0 registered @ 2013-01-19 15:52:58, last login @ 2013-01-19 15:52:58
  79. 0mouse9road registered @ 2013-01-19 15:53:32, last login @ 2013-01-19 15:53:32
  80. 0river5board registered @ 2013-01-19 15:54:30, last login @ 2013-01-19 15:54:30
  81. 0dewpoet9 registered @ 2013-01-19 15:54:50, last login @ 2013-01-19 15:54:50
  82. 0celerywhale88 registered @ 2013-01-19 15:55:14, last login @ 2013-01-19 15:55:14
  83. 0bailcross46 registered @ 2013-01-19 15:57:32, last login @ 2013-01-19 15:57:32
  84. 0runfelony7 registered @ 2013-01-19 15:58:11, last login @ 2013-01-19 15:58:11
  85. 0yarn0front registered @ 2013-01-19 15:59:04, last login @ 2013-01-19 15:59:04
  86. 0childrussia85 registered @ 2013-01-19 15:59:04, last login @ 2013-01-19 15:59:04
  87. 0slip2shade registered @ 2013-01-19 15:59:31, last login @ 2013-01-19 15:59:31
  88. 0kettle89quiver registered @ 2013-01-19 15:59:51, last login @ 2013-01-19 15:59:51
  89. 0ankle4daniel registered @ 2013-01-19 16:00:36, last login @ 2013-01-19 16:00:36
  90. 0event98rayon registered @ 2013-01-19 16:01:23, last login @ 2013-01-19 16:30:27
  91. 0rabbit84piano registered @ 2013-01-19 16:01:31, last login @ 2013-01-19 16:30:34
  92. 0pigeonflower82 registered @ 2013-01-19 16:02:18, last login @ 2013-01-19 16:02:18
  93. 0windporter15 registered @ 2013-01-19 16:03:20, last login @ 2013-01-19 16:35:32
  94. 0bass6key registered @ 2013-01-19 16:04:33, last login @ 2013-01-19 16:38:52
  95. 0throat70desire registered @ 2013-01-19 16:05:44, last login @ 2013-01-19 16:41:31
  96. 0judgered8 registered @ 2013-01-19 16:06:46, last login @ 2013-01-19 16:06:46
  97. 0ship2nation registered @ 2013-01-19 16:07:34, last login @ 2013-01-19 16:07:34
  98. 0violaslave12 registered @ 2013-01-19 16:08:42, last login @ 2013-01-19 16:08:42
  99. 0chivepyjama5 registered @ 2013-01-19 16:08:52, last login @ 2013-01-19 16:08:52
  100. 0bordertempo80 registered @ 2013-01-19 16:11:37, last login @ 2013-01-19 16:55:51
  101. 0bomberbase6 registered @ 2013-01-19 16:11:45, last login @ 2013-01-19 16:27:29

More...

[5524] [5523] [5522] [5521] [5520] [5519] [5518] [5517] [5516] [5515] [5514] [5513] [5512] [5511] [5510] [5509] [5508] [5507] [5506] [5505] ...[1]
Back to Top